sensor_id;sensor_type;location;lat;lon;timestamp;temperature;humidity
21662;DHT22;10992;48.170;8.596;2023-07-13T00:01:50;16.10;99.90
21662;DHT22;10992;48.170;8.596;2023-07-13T00:04:20;16.10;99.90
21662;DHT22;10992;48.170;8.596;2023-07-13T00:06:47;16.10;99.90
21662;DHT22;10992;48.170;8.596;2023-07-13T00:09:16;16.10;99.90
21662;DHT22;10992;48.170;8.596;2023-07-13T00:11:44;16.30;99.90
21662;DHT22;10992;48.170;8.596;2023-07-13T00:14:11;16.10;99.90
21662;DHT22;10992;48.170;8.596;2023-07-13T00:16:40;16.20;99.90
21662;DHT22;10992;48.170;8.596;2023-07-13T00:19:11;16.30;99.90
21662;DHT22;10992;48.170;8.596;2023-07-13T00:21:39;16.30;99.90
21662;DHT22;10992;48.170;8.596;2023-07-13T00:24:08;16.30;99.90
21662;DHT22;10992;48.170;8.596;2023-07-13T00:26:39;16.30;99.90
21662;DHT22;10992;48.170;8.596;2023-07-13T00:29:06;16.30;99.90
21662;DHT22;10992;48.170;8.596;2023-07-13T00:31:36;16.30;99.90
21662;DHT22;10992;48.170;8.596;2023-07-13T00:34:04;16.20;99.90
21662;DHT22;10992;48.170;8.596;2023-07-13T00:36:31;16.20;99.90
21662;DHT22;10992;48.170;8.596;2023-07-13T00:38:58;16.10;99.90
21662;DHT22;10992;48.170;8.596;2023-07-13T00:41:25;16.10;99.90
21662;DHT22;10992;48.170;8.596;2023-07-13T00:43:52;16.00;99.90
21662;DHT22;10992;48.170;8.596;2023-07-13T00:48:53;16.00;99.90
21662;DHT22;10992;48.170;8.596;2023-07-13T00:51:31;15.90;99.90
21662;DHT22;10992;48.170;8.596;2023-07-13T00:54:04;15.90;99.90
21662;DHT22;10992;48.170;8.596;2023-07-13T00:56:32;15.80;99.90
21662;DHT22;10992;48.170;8.596;2023-07-13T00:59:01;15.80;99.90
21662;DHT22;10992;48.170;8.596;2023-07-13T01:01:29;15.80;99.90
21662;DHT22;10992;48.170;8.596;2023-07-13T01:03:57;15.70;99.90
21662;DHT22;10992;48.170;8.596;2023-07-13T01:06:24;15.70;99.90
21662;DHT22;10992;48.170;8.596;2023-07-13T01:08:51;15.60;99.90
21662;DHT22;10992;48.170;8.596;2023-07-13T01:11:20;15.50;99.90
21662;DHT22;10992;48.170;8.596;2023-07-13T01:13:49;15.60;99.90
21662;DHT22;10992;48.170;8.596;2023-07-13T01:16:25;15.60;99.90
21662;DHT22;10992;48.170;8.596;2023-07-13T01:18:54;15.60;99.90
21662;DHT22;10992;48.170;8.596;2023-07-13T01:21:25;15.80;99.90
21662;DHT22;10992;48.170;8.596;2023-07-13T01:23:52;15.70;99.90
21662;DHT22;10992;48.170;8.596;2023-07-13T01:26:21;15.90;99.90
21662;DHT22;10992;48.170;8.596;2023-07-13T01:28:48;16.00;99.90
21662;DHT22;10992;48.170;8.596;2023-07-13T01:31:15;16.00;99.90
21662;DHT22;10992;48.170;8.596;2023-07-13T01:33:42;16.10;99.90
21662;DHT22;10992;48.170;8.596;2023-07-13T01:36:10;16.10;99.90
21662;DHT22;10992;48.170;8.596;2023-07-13T01:38:37;16.10;99.90
21662;DHT22;10992;48.170;8.596;2023-07-13T01:41:04;16.10;99.90
21662;DHT22;10992;48.170;8.596;2023-07-13T01:43:31;16.00;99.90
21662;DHT22;10992;48.170;8.596;2023-07-13T01:45:59;15.80;99.90
21662;DHT22;10992;48.170;8.596;2023-07-13T01:48:46;15.80;99.90
21662;DHT22;10992;48.170;8.596;2023-07-13T01:51:13;15.70;99.90
21662;DHT22;10992;48.170;8.596;2023-07-13T01:53:40;15.50;99.90
21662;DHT22;10992;48.170;8.596;2023-07-13T01:56:07;15.30;99.90
21662;DHT22;10992;48.170;8.596;2023-07-13T01:58:34;15.30;99.90
21662;DHT22;10992;48.170;8.596;2023-07-13T02:01:01;15.30;99.90
21662;DHT22;10992;48.170;8.596;2023-07-13T02:03:28;15.20;99.90
21662;DHT22;10992;48.170;8.596;2023-07-13T02:05:57;15.20;99.90
21662;DHT22;10992;48.170;8.596;2023-07-13T02:08:24;15.20;99.90
21662;DHT22;10992;48.170;8.596;2023-07-13T02:10:51;15.20;99.90
21662;DHT22;10992;48.170;8.596;2023-07-13T02:13:18;15.20;99.90
21662;DHT22;10992;48.170;8.596;2023-07-13T02:15:45;15.20;99.90
21662;DHT22;10992;48.170;8.596;2023-07-13T02:18:12;15.20;99.90
21662;DHT22;10992;48.170;8.596;2023-07-13T02:20:44;15.10;99.90
21662;DHT22;10992;48.170;8.596;2023-07-13T02:23:11;15.00;99.90
21662;DHT22;10992;48.170;8.596;2023-07-13T02:25:38;14.90;99.90
21662;DHT22;10992;48.170;8.596;2023-07-13T02:28:05;14.80;99.90
21662;DHT22;10992;48.170;8.596;2023-07-13T02:30:32;14.80;99.90
21662;DHT22;10992;48.170;8.596;2023-07-13T02:32:59;14.70;99.90
21662;DHT22;10992;48.170;8.596;2023-07-13T02:35:25;14.80;99.90
21662;DHT22;10992;48.170;8.596;2023-07-13T02:37:52;14.80;99.90
21662;DHT22;10992;48.170;8.596;2023-07-13T02:40:20;14.80;99.90
21662;DHT22;10992;48.170;8.596;2023-07-13T02:42:47;14.80;99.90
21662;DHT22;10992;48.170;8.596;2023-07-13T02:45:14;14.80;99.90
21662;DHT22;10992;48.170;8.596;2023-07-13T02:47:41;14.70;99.90
21662;DHT22;10992;48.170;8.596;2023-07-13T02:50:10;14.70;99.90
21662;DHT22;10992;48.170;8.596;2023-07-13T02:52:37;14.70;99.90
21662;DHT22;10992;48.170;8.596;2023-07-13T02:55:04;14.60;99.90
21662;DHT22;10992;48.170;8.596;2023-07-13T02:57:31;14.60;99.90
21662;DHT22;10992;48.170;8.596;2023-07-13T03:00:00;14.60;99.90
21662;DHT22;10992;48.170;8.596;2023-07-13T03:02:28;14.50;99.90
21662;DHT22;10992;48.170;8.596;2023-07-13T03:04:55;14.50;99.90
21662;DHT22;10992;48.170;8.596;2023-07-13T03:07:23;14.50;99.90
21662;DHT22;10992;48.170;8.596;2023-07-13T03:09:56;14.40;99.90
21662;DHT22;10992;48.170;8.596;2023-07-13T03:12:29;14.40;99.90
21662;DHT22;10992;48.170;8.596;2023-07-13T03:14:57;14.30;99.90
21662;DHT22;10992;48.170;8.596;2023-07-13T03:17:24;14.20;99.90
21662;DHT22;10992;48.170;8.596;2023-07-13T03:19:51;14.20;99.90
21662;DHT22;10992;48.170;8.596;2023-07-13T03:22:18;14.20;99.90
21662;DHT22;10992;48.170;8.596;2023-07-13T03:24:46;14.20;99.90
21662;DHT22;10992;48.170;8.596;2023-07-13T03:27:13;14.20;99.90
21662;DHT22;10992;48.170;8.596;2023-07-13T03:29:42;14.20;99.90
21662;DHT22;10992;48.170;8.596;2023-07-13T03:32:10;14.20;99.90
21662;DHT22;10992;48.170;8.596;2023-07-13T03:34:37;14.30;99.90
21662;DHT22;10992;48.170;8.596;2023-07-13T03:37:05;14.30;99.90
21662;DHT22;10992;48.170;8.596;2023-07-13T03:39:35;14.30;99.90
21662;DHT22;10992;48.170;8.596;2023-07-13T03:42:02;14.40;99.90
21662;DHT22;10992;48.170;8.596;2023-07-13T03:44:30;14.40;99.90
21662;DHT22;10992;48.170;8.596;2023-07-13T03:46:57;14.40;99.90
21662;DHT22;10992;48.170;8.596;2023-07-13T03:49:24;14.40;99.90
21662;DHT22;10992;48.170;8.596;2023-07-13T03:51:51;14.50;99.90
21662;DHT22;10992;48.170;8.596;2023-07-13T03:54:20;14.50;99.90
21662;DHT22;10992;48.170;8.596;2023-07-13T03:56:47;14.50;99.90
21662;DHT22;10992;48.170;8.596;2023-07-13T03:59:15;14.40;99.90
21662;DHT22;10992;48.170;8.596;2023-07-13T04:01:44;14.30;99.90
21662;DHT22;10992;48.170;8.596;2023-07-13T04:04:12;14.30;99.90
21662;DHT22;10992;48.170;8.596;2023-07-13T04:06:39;14.30;99.90
21662;DHT22;10992;48.170;8.596;2023-07-13T04:09:06;14.30;99.90
21662;DHT22;10992;48.170;8.596;2023-07-13T04:11:33;14.40;99.90
21662;DHT22;10992;48.170;8.596;2023-07-13T04:14:00;14.50;99.90
21662;DHT22;10992;48.170;8.596;2023-07-13T04:16:27;14.60;99.90
21662;DHT22;10992;48.170;8.596;2023-07-13T04:18:55;14.70;99.90
21662;DHT22;10992;48.170;8.596;2023-07-13T04:21:28;14.80;99.90
21662;DHT22;10992;48.170;8.596;2023-07-13T04:23:55;15.00;99.90
21662;DHT22;10992;48.170;8.596;2023-07-13T04:26:22;15.10;99.90
21662;DHT22;10992;48.170;8.596;2023-07-13T04:28:50;15.20;99.90
21662;DHT22;10992;48.170;8.596;2023-07-13T04:31:18;15.20;99.90
21662;DHT22;10992;48.170;8.596;2023-07-13T04:33:45;15.20;99.90
21662;DHT22;10992;48.170;8.596;2023-07-13T04:36:15;15.30;99.90
21662;DHT22;10992;48.170;8.596;2023-07-13T04:38:42;15.30;99.90
21662;DHT22;10992;48.170;8.596;2023-07-13T04:41:09;15.30;99.90
21662;DHT22;10992;48.170;8.596;2023-07-13T04:43:36;15.40;99.90
21662;DHT22;10992;48.170;8.596;2023-07-13T04:46:08;15.40;99.90
21662;DHT22;10992;48.170;8.596;2023-07-13T04:48:37;15.40;99.90
21662;DHT22;10992;48.170;8.596;2023-07-13T04:51:04;15.60;99.90
21662;DHT22;10992;48.170;8.596;2023-07-13T04:53:32;15.80;99.90
21662;DHT22;10992;48.170;8.596;2023-07-13T04:56:02;15.90;99.90
21662;DHT22;10992;48.170;8.596;2023-07-13T04:58:29;16.00;99.90
21662;DHT22;10992;48.170;8.596;2023-07-13T05:01:01;16.20;99.90
21662;DHT22;10992;48.170;8.596;2023-07-13T05:03:29;16.30;99.90
21662;DHT22;10992;48.170;8.596;2023-07-13T05:05:57;16.40;99.90
21662;DHT22;10992;48.170;8.596;2023-07-13T05:08:25;16.60;99.90
21662;DHT22;10992;48.170;8.596;2023-07-13T05:10:52;16.80;99.90
21662;DHT22;10992;48.170;8.596;2023-07-13T05:13:20;17.10;99.90
21662;DHT22;10992;48.170;8.596;2023-07-13T05:16:06;17.30;99.90
21662;DHT22;10992;48.170;8.596;2023-07-13T05:18:35;17.90;99.90
21662;DHT22;10992;48.170;8.596;2023-07-13T05:21:05;18.40;99.90
21662;DHT22;10992;48.170;8.596;2023-07-13T05:23:34;19.30;99.90
21662;DHT22;10992;48.170;8.596;2023-07-13T05:26:01;20.20;99.90
21662;DHT22;10992;48.170;8.596;2023-07-13T05:28:29;20.80;99.90
21662;DHT22;10992;48.170;8.596;2023-07-13T05:30:56;21.30;99.90
21662;DHT22;10992;48.170;8.596;2023-07-13T05:33:24;21.10;99.90
21662;DHT22;10992;48.170;8.596;2023-07-13T05:35:51;20.80;99.90
21662;DHT22;10992;48.170;8.596;2023-07-13T05:38:18;20.40;99.90
21662;DHT22;10992;48.170;8.596;2023-07-13T05:40:46;20.40;99.90
21662;DHT22;10992;48.170;8.596;2023-07-13T05:43:14;20.70;99.90
21662;DHT22;10992;48.170;8.596;2023-07-13T05:45:41;20.60;99.90
21662;DHT22;10992;48.170;8.596;2023-07-13T05:48:08;20.50;99.90
21662;DHT22;10992;48.170;8.596;2023-07-13T05:50:35;20.40;99.90
21662;DHT22;10992;48.170;8.596;2023-07-13T05:53:02;20.40;99.90
21662;DHT22;10992;48.170;8.596;2023-07-13T05:55:29;20.50;99.90
21662;DHT22;10992;48.170;8.596;2023-07-13T05:57:56;20.20;99.90
21662;DHT22;10992;48.170;8.596;2023-07-13T06:00:25;20.20;99.90
21662;DHT22;10992;48.170;8.596;2023-07-13T06:02:52;20.40;99.90
21662;DHT22;10992;48.170;8.596;2023-07-13T06:05:19;20.70;99.90
21662;DHT22;10992;48.170;8.596;2023-07-13T06:07:46;21.30;99.90
21662;DHT22;10992;48.170;8.596;2023-07-13T06:10:13;22.60;99.90
21662;DHT22;10992;48.170;8.596;2023-07-13T06:12:40;24.60;99.90
21662;DHT22;10992;48.170;8.596;2023-07-13T06:15:07;27.30;99.90
21662;DHT22;10992;48.170;8.596;2023-07-13T06:17:34;28.10;99.90
21662;DHT22;10992;48.170;8.596;2023-07-13T06:20:02;28.90;99.90
21662;DHT22;10992;48.170;8.596;2023-07-13T06:22:29;30.10;99.90
21662;DHT22;10992;48.170;8.596;2023-07-13T06:24:56;30.20;99.90
21662;DHT22;10992;48.170;8.596;2023-07-13T06:27:23;29.20;99.90
21662;DHT22;10992;48.170;8.596;2023-07-13T06:29:50;28.10;99.90
21662;DHT22;10992;48.170;8.596;2023-07-13T06:32:17;28.90;99.90
21662;DHT22;10992;48.170;8.596;2023-07-13T06:34:44;30.10;99.90
21662;DHT22;10992;48.170;8.596;2023-07-13T06:37:11;31.50;99.90
21662;DHT22;10992;48.170;8.596;2023-07-13T06:39:38;31.40;99.60
21662;DHT22;10992;48.170;8.596;2023-07-13T06:42:05;30.40;99.80
21662;DHT22;10992;48.170;8.596;2023-07-13T06:44:32;30.30;99.70
21662;DHT22;10992;48.170;8.596;2023-07-13T06:46:59;30.00;99.30
21662;DHT22;10992;48.170;8.596;2023-07-13T06:49:26;29.60;99.00
21662;DHT22;10992;48.170;8.596;2023-07-13T06:51:53;29.10;99.40
21662;DHT22;10992;48.170;8.596;2023-07-13T06:54:20;30.70;99.80
21662;DHT22;10992;48.170;8.596;2023-07-13T06:56:46;31.80;97.70
21662;DHT22;10992;48.170;8.596;2023-07-13T06:59:13;31.70;96.20
21662;DHT22;10992;48.170;8.596;2023-07-13T07:01:40;32.00;96.90
21662;DHT22;10992;48.170;8.596;2023-07-13T07:04:07;33.30;95.20
21662;DHT22;10992;48.170;8.596;2023-07-13T07:06:35;33.60;94.10
21662;DHT22;10992;48.170;8.596;2023-07-13T07:09:02;33.40;93.90
21662;DHT22;10992;48.170;8.596;2023-07-13T07:11:29;33.30;92.50
21662;DHT22;10992;48.170;8.596;2023-07-13T07:13:56;31.70;92.40
21662;DHT22;10992;48.170;8.596;2023-07-13T07:16:24;31.00;94.30
21662;DHT22;10992;48.170;8.596;2023-07-13T07:18:52;30.80;95.70
21662;DHT22;10992;48.170;8.596;2023-07-13T07:21:18;30.50;95.90
21662;DHT22;10992;48.170;8.596;2023-07-13T07:23:46;30.80;96.00
21662;DHT22;10992;48.170;8.596;2023-07-13T07:26:12;30.70;93.60
21662;DHT22;10992;48.170;8.596;2023-07-13T07:28:39;30.00;94.30
21662;DHT22;10992;48.170;8.596;2023-07-13T07:31:12;30.40;93.30
21662;DHT22;10992;48.170;8.596;2023-07-13T07:33:42;30.70;94.80
21662;DHT22;10992;48.170;8.596;2023-07-13T07:36:09;31.80;93.10
21662;DHT22;10992;48.170;8.596;2023-07-13T07:38:39;31.70;92.10
21662;DHT22;10992;48.170;8.596;2023-07-13T07:41:06;31.50;91.30
21662;DHT22;10992;48.170;8.596;2023-07-13T07:43:36;31.80;90.80
21662;DHT22;10992;48.170;8.596;2023-07-13T07:46:03;32.60;91.30
21662;DHT22;10992;48.170;8.596;2023-07-13T07:48:31;32.70;90.30
21662;DHT22;10992;48.170;8.596;2023-07-13T07:50:58;33.40;88.80
21662;DHT22;10992;48.170;8.596;2023-07-13T07:53:25;33.00;87.30
21662;DHT22;10992;48.170;8.596;2023-07-13T07:55:52;32.00;89.80
21662;DHT22;10992;48.170;8.596;2023-07-13T07:58:21;30.90;91.60
21662;DHT22;10992;48.170;8.596;2023-07-13T08:00:51;30.00;91.90
21662;DHT22;10992;48.170;8.596;2023-07-13T08:03:21;30.50;92.70
21662;DHT22;10992;48.170;8.596;2023-07-13T08:05:54;31.80;92.40
21662;DHT22;10992;48.170;8.596;2023-07-13T08:08:24;32.40;90.30
21662;DHT22;10992;48.170;8.596;2023-07-13T08:10:52;33.00;90.40
21662;DHT22;10992;48.170;8.596;2023-07-13T08:13:25;34.20;86.00
21662;DHT22;10992;48.170;8.596;2023-07-13T08:15:52;35.00;85.70
21662;DHT22;10992;48.170;8.596;2023-07-13T08:18:19;34.60;87.20
21662;DHT22;10992;48.170;8.596;2023-07-13T08:20:45;33.20;88.40
21662;DHT22;10992;48.170;8.596;2023-07-13T08:23:12;31.90;89.10
21662;DHT22;10992;48.170;8.596;2023-07-13T08:25:39;31.00;90.20
21662;DHT22;10992;48.170;8.596;2023-07-13T08:28:06;30.50;90.20
21662;DHT22;10992;48.170;8.596;2023-07-13T08:30:33;30.00;89.70
21662;DHT22;10992;48.170;8.596;2023-07-13T08:33:00;28.10;91.60
21662;DHT22;10992;48.170;8.596;2023-07-13T08:35:27;27.70;94.90
21662;DHT22;10992;48.170;8.596;2023-07-13T08:37:54;27.90;93.10
21662;DHT22;10992;48.170;8.596;2023-07-13T08:40:25;27.60;93.40
21662;DHT22;10992;48.170;8.596;2023-07-13T08:42:57;28.20;94.80
21662;DHT22;10992;48.170;8.596;2023-07-13T08:45:47;28.60;92.60
21662;DHT22;10992;48.170;8.596;2023-07-13T08:48:32;27.70;93.30
21662;DHT22;10992;48.170;8.596;2023-07-13T08:51:31;26.90;93.60
21662;DHT22;10992;48.170;8.596;2023-07-13T08:54:03;27.30;94.30
21662;DHT22;10992;48.170;8.596;2023-07-13T08:56:32;26.50;95.60
21662;DHT22;10992;48.170;8.596;2023-07-13T08:59:17;26.30;94.70
21662;DHT22;10992;48.170;8.596;2023-07-13T09:07:44;24.10;97.00
21662;DHT22;10992;48.170;8.596;2023-07-13T09:10:30;26.50;96.70
21662;DHT22;10992;48.170;8.596;2023-07-13T09:13:00;26.90;92.80
21662;DHT22;10992;48.170;8.596;2023-07-13T09:15:34;26.70;93.90
21662;DHT22;10992;48.170;8.596;2023-07-13T09:18:09;26.70;94.30
21662;DHT22;10992;48.170;8.596;2023-07-13T09:20:37;26.60;93.90
21662;DHT22;10992;48.170;8.596;2023-07-13T09:23:11;27.50;94.60
21662;DHT22;10992;48.170;8.596;2023-07-13T09:25:41;26.40;95.50
21662;DHT22;10992;48.170;8.596;2023-07-13T09:28:20;25.90;95.70
21662;DHT22;10992;48.170;8.596;2023-07-13T09:31:00;25.70;97.00
21662;DHT22;10992;48.170;8.596;2023-07-13T09:33:28;26.00;95.40
21662;DHT22;10992;48.170;8.596;2023-07-13T09:35:58;25.70;95.80
21662;DHT22;10992;48.170;8.596;2023-07-13T09:38:28;25.20;95.60
21662;DHT22;10992;48.170;8.596;2023-07-13T09:46:32;24.20;97.80
21662;DHT22;10992;48.170;8.596;2023-07-13T09:48:59;24.40;98.40
21662;DHT22;10992;48.170;8.596;2023-07-13T09:51:26;25.30;99.40
21662;DHT22;10992;48.170;8.596;2023-07-13T09:53:54;26.40;95.80
21662;DHT22;10992;48.170;8.596;2023-07-13T09:56:21;26.60;94.30
21662;DHT22;10992;48.170;8.596;2023-07-13T09:58:49;26.70;95.80
21662;DHT22;10992;48.170;8.596;2023-07-13T10:01:31;28.50;93.90
21662;DHT22;10992;48.170;8.596;2023-07-13T10:03:59;30.00;92.40
21662;DHT22;10992;48.170;8.596;2023-07-13T10:06:26;30.30;92.10
21662;DHT22;10992;48.170;8.596;2023-07-13T10:08:55;30.20;91.70
21662;DHT22;10992;48.170;8.596;2023-07-13T10:11:30;30.30;91.90
21662;DHT22;10992;48.170;8.596;2023-07-13T10:13:59;29.20;93.80
21662;DHT22;10992;48.170;8.596;2023-07-13T10:16:31;27.00;93.30
21662;DHT22;10992;48.170;8.596;2023-07-13T10:19:21;25.60;94.90
21662;DHT22;10992;48.170;8.596;2023-07-13T10:21:56;24.70;96.70
21662;DHT22;10992;48.170;8.596;2023-07-13T10:24:29;24.50;96.40
21662;DHT22;10992;48.170;8.596;2023-07-13T10:26:58;24.10;96.50
21662;DHT22;10992;48.170;8.596;2023-07-13T10:29:28;24.80;95.90
21662;DHT22;10992;48.170;8.596;2023-07-13T10:31:56;26.10;94.90
21662;DHT22;10992;48.170;8.596;2023-07-13T10:34:24;26.40;94.10
21662;DHT22;10992;48.170;8.596;2023-07-13T10:36:51;27.20;93.60
21662;DHT22;10992;48.170;8.596;2023-07-13T10:39:23;26.10;94.60
21662;DHT22;10992;48.170;8.596;2023-07-13T10:41:57;26.00;95.30
21662;DHT22;10992;48.170;8.596;2023-07-13T10:44:30;25.20;96.60
21662;DHT22;10992;48.170;8.596;2023-07-13T10:47:07;24.70;97.30
21662;DHT22;10992;48.170;8.596;2023-07-13T10:49:36;24.40;97.20
21662;DHT22;10992;48.170;8.596;2023-07-13T10:52:04;25.00;97.90
21662;DHT22;10992;48.170;8.596;2023-07-13T10:54:32;24.80;96.80
21662;DHT22;10992;48.170;8.596;2023-07-13T10:57:21;25.80;96.60
21662;DHT22;10992;48.170;8.596;2023-07-13T11:02:56;27.30;94.50
21662;DHT22;10992;48.170;8.596;2023-07-13T11:07:54;27.50;95.10
21662;DHT22;10992;48.170;8.596;2023-07-13T11:18:51;29.30;91.30
21662;DHT22;10992;48.170;8.596;2023-07-13T11:21:21;29.10;92.80
21662;DHT22;10992;48.170;8.596;2023-07-13T11:24:28;28.90;91.50
21662;DHT22;10992;48.170;8.596;2023-07-13T11:26:55;28.70;92.40
21662;DHT22;10992;48.170;8.596;2023-07-13T11:29:33;27.80;92.40
21662;DHT22;10992;48.170;8.596;2023-07-13T11:32:23;27.20;93.40
21662;DHT22;10992;48.170;8.596;2023-07-13T11:34:50;27.50;92.90
21662;DHT22;10992;48.170;8.596;2023-07-13T11:37:18;28.50;92.90
21662;DHT22;10992;48.170;8.596;2023-07-13T11:39:46;29.00;90.90
21662;DHT22;10992;48.170;8.596;2023-07-13T11:42:16;29.90;92.20
21662;DHT22;10992;48.170;8.596;2023-07-13T11:44:47;30.50;91.30
21662;DHT22;10992;48.170;8.596;2023-07-13T11:47:33;29.90;90.90
21662;DHT22;10992;48.170;8.596;2023-07-13T11:50:00;29.30;88.30
21662;DHT22;10992;48.170;8.596;2023-07-13T11:52:36;29.20;89.90
21662;DHT22;10992;48.170;8.596;2023-07-13T11:55:14;28.70;91.20
21662;DHT22;10992;48.170;8.596;2023-07-13T11:58:01;29.60;90.10
21662;DHT22;10992;48.170;8.596;2023-07-13T12:00:29;29.20;90.00
21662;DHT22;10992;48.170;8.596;2023-07-13T12:03:01;29.60;90.50
21662;DHT22;10992;48.170;8.596;2023-07-13T12:05:31;29.30;88.70
21662;DHT22;10992;48.170;8.596;2023-07-13T12:07:59;29.20;89.40
21662;DHT22;10992;48.170;8.596;2023-07-13T12:10:34;29.30;90.30
21662;DHT22;10992;48.170;8.596;2023-07-13T12:13:05;30.30;85.50
21662;DHT22;10992;48.170;8.596;2023-07-13T12:15:39;28.70;87.60
21662;DHT22;10992;48.170;8.596;2023-07-13T12:18:17;28.50;87.20
21662;DHT22;10992;48.170;8.596;2023-07-13T12:20:49;27.70;90.90
21662;DHT22;10992;48.170;8.596;2023-07-13T12:23:25;27.50;91.00
21662;DHT22;10992;48.170;8.596;2023-07-13T12:25:55;27.20;92.00
21662;DHT22;10992;48.170;8.596;2023-07-13T12:31:03;26.50;92.50
21662;DHT22;10992;48.170;8.596;2023-07-13T12:33:31;26.50;92.40
21662;DHT22;10992;48.170;8.596;2023-07-13T12:36:05;26.40;91.20
21662;DHT22;10992;48.170;8.596;2023-07-13T12:38:32;26.60;93.30
21662;DHT22;10992;48.170;8.596;2023-07-13T12:41:01;26.70;91.50
21662;DHT22;10992;48.170;8.596;2023-07-13T12:43:34;27.30;91.30
21662;DHT22;10992;48.170;8.596;2023-07-13T12:48:43;27.50;91.10
21662;DHT22;10992;48.170;8.596;2023-07-13T12:51:26;28.20;91.40
21662;DHT22;10992;48.170;8.596;2023-07-13T12:53:58;27.50;92.60
21662;DHT22;10992;48.170;8.596;2023-07-13T12:56:33;27.00;91.70
21662;DHT22;10992;48.170;8.596;2023-07-13T12:59:02;27.00;92.30
21662;DHT22;10992;48.170;8.596;2023-07-13T13:01:34;27.50;90.70
21662;DHT22;10992;48.170;8.596;2023-07-13T13:04:04;27.50;90.70
21662;DHT22;10992;48.170;8.596;2023-07-13T13:06:33;27.60;91.00
21662;DHT22;10992;48.170;8.596;2023-07-13T13:09:03;28.50;90.50
21662;DHT22;10992;48.170;8.596;2023-07-13T13:11:31;29.20;90.80
21662;DHT22;10992;48.170;8.596;2023-07-13T13:13:58;28.60;91.20
21662;DHT22;10992;48.170;8.596;2023-07-13T13:16:46;27.00;91.90
21662;DHT22;10992;48.170;8.596;2023-07-13T13:21:49;26.40;92.60
21662;DHT22;10992;48.170;8.596;2023-07-13T13:24:24;26.10;93.10
21662;DHT22;10992;48.170;8.596;2023-07-13T13:26:53;26.10;93.60
21662;DHT22;10992;48.170;8.596;2023-07-13T13:29:22;26.00;92.60
21662;DHT22;10992;48.170;8.596;2023-07-13T13:31:54;26.90;93.20
21662;DHT22;10992;48.170;8.596;2023-07-13T13:34:23;27.70;91.30
21662;DHT22;10992;48.170;8.596;2023-07-13T13:36:52;28.10;90.00
21662;DHT22;10992;48.170;8.596;2023-07-13T13:39:30;28.60;91.10
21662;DHT22;10992;48.170;8.596;2023-07-13T13:41:59;28.10;90.30
21662;DHT22;10992;48.170;8.596;2023-07-13T13:44:25;27.20;90.90
21662;DHT22;10992;48.170;8.596;2023-07-13T13:46:54;27.00;91.80
21662;DHT22;10992;48.170;8.596;2023-07-13T13:49:26;26.40;92.40
21662;DHT22;10992;48.170;8.596;2023-07-13T13:51:54;26.90;94.00
21662;DHT22;10992;48.170;8.596;2023-07-13T13:54:22;27.30;92.30
21662;DHT22;10992;48.170;8.596;2023-07-13T13:56:51;27.40;92.80
21662;DHT22;10992;48.170;8.596;2023-07-13T13:59:19;27.70;92.60
21662;DHT22;10992;48.170;8.596;2023-07-13T14:01:47;27.20;92.00
21662;DHT22;10992;48.170;8.596;2023-07-13T14:04:19;27.70;91.90
21662;DHT22;10992;48.170;8.596;2023-07-13T14:06:46;27.20;91.00
21662;DHT22;10992;48.170;8.596;2023-07-13T14:09:16;27.10;91.60
21662;DHT22;10992;48.170;8.596;2023-07-13T14:11:46;27.30;93.00
21662;DHT22;10992;48.170;8.596;2023-07-13T14:14:19;27.80;92.30
21662;DHT22;10992;48.170;8.596;2023-07-13T14:16:47;27.60;90.90
21662;DHT22;10992;48.170;8.596;2023-07-13T14:19:20;27.30;91.50
21662;DHT22;10992;48.170;8.596;2023-07-13T14:21:47;27.70;91.60
21662;DHT22;10992;48.170;8.596;2023-07-13T14:24:16;28.30;92.20
21662;DHT22;10992;48.170;8.596;2023-07-13T14:26:43;28.90;92.30
21662;DHT22;10992;48.170;8.596;2023-07-13T14:29:14;28.50;90.50
21662;DHT22;10992;48.170;8.596;2023-07-13T14:31:42;28.00;91.40
21662;DHT22;10992;48.170;8.596;2023-07-13T14:34:12;27.60;91.30
21662;DHT22;10992;48.170;8.596;2023-07-13T14:36:47;27.40;90.90
21662;DHT22;10992;48.170;8.596;2023-07-13T14:39:22;27.30;92.30
21662;DHT22;10992;48.170;8.596;2023-07-13T14:41:55;26.80;92.90
21662;DHT22;10992;48.170;8.596;2023-07-13T14:44:27;25.80;93.60
21662;DHT22;10992;48.170;8.596;2023-07-13T14:46:59;25.30;93.90
21662;DHT22;10992;48.170;8.596;2023-07-13T14:49:38;25.30;94.50
21662;DHT22;10992;48.170;8.596;2023-07-13T14:52:15;25.50;94.30
21662;DHT22;10992;48.170;8.596;2023-07-13T14:54:43;25.50;93.70
21662;DHT22;10992;48.170;8.596;2023-07-13T14:57:13;26.10;94.50
21662;DHT22;10992;48.170;8.596;2023-07-13T14:59:40;25.90;93.10
21662;DHT22;10992;48.170;8.596;2023-07-13T15:04:43;25.00;93.80
21662;DHT22;10992;48.170;8.596;2023-07-13T15:07:11;24.90;94.90
21662;DHT22;10992;48.170;8.596;2023-07-13T15:09:39;25.10;95.10
21662;DHT22;10992;48.170;8.596;2023-07-13T15:12:07;25.60;94.70
21662;DHT22;10992;48.170;8.596;2023-07-13T15:14:34;26.10;94.10
21662;DHT22;10992;48.170;8.596;2023-07-13T15:17:01;25.90;94.80
21662;DHT22;10992;48.170;8.596;2023-07-13T15:19:28;25.60;94.30
21662;DHT22;10992;48.170;8.596;2023-07-13T15:21:56;25.00;95.20
21662;DHT22;10992;48.170;8.596;2023-07-13T15:24:24;25.20;94.80
21662;DHT22;10992;48.170;8.596;2023-07-13T15:26:51;25.20;94.90
21662;DHT22;10992;48.170;8.596;2023-07-13T15:29:18;25.20;95.80
21662;DHT22;10992;48.170;8.596;2023-07-13T15:31:45;25.00;94.70
21662;DHT22;10992;48.170;8.596;2023-07-13T15:34:18;25.00;94.80
21662;DHT22;10992;48.170;8.596;2023-07-13T15:36:47;24.80;95.00
21662;DHT22;10992;48.170;8.596;2023-07-13T15:39:16;25.00;95.80
21662;DHT22;10992;48.170;8.596;2023-07-13T15:41:44;24.90;94.80
21662;DHT22;10992;48.170;8.596;2023-07-13T15:44:22;25.10;95.10
21662;DHT22;10992;48.170;8.596;2023-07-13T15:46:50;25.20;95.50
21662;DHT22;10992;48.170;8.596;2023-07-13T15:49:17;25.00;94.90
21662;DHT22;10992;48.170;8.596;2023-07-13T15:51:44;24.80;95.30
21662;DHT22;10992;48.170;8.596;2023-07-13T15:54:14;24.80;95.90
21662;DHT22;10992;48.170;8.596;2023-07-13T15:56:41;24.50;96.10
21662;DHT22;10992;48.170;8.596;2023-07-13T15:59:11;24.40;95.70
21662;DHT22;10992;48.170;8.596;2023-07-13T16:01:41;24.30;95.90
21662;DHT22;10992;48.170;8.596;2023-07-13T16:04:08;24.20;96.30
21662;DHT22;10992;48.170;8.596;2023-07-13T16:06:37;23.90;96.60
21662;DHT22;10992;48.170;8.596;2023-07-13T16:09:19;23.90;96.20
21662;DHT22;10992;48.170;8.596;2023-07-13T16:11:47;24.20;96.80
21662;DHT22;10992;48.170;8.596;2023-07-13T16:14:15;24.40;96.90
21662;DHT22;10992;48.170;8.596;2023-07-13T16:16:43;24.60;97.00
21662;DHT22;10992;48.170;8.596;2023-07-13T16:19:11;24.80;96.70
21662;DHT22;10992;48.170;8.596;2023-07-13T16:21:46;24.60;95.90
21662;DHT22;10992;48.170;8.596;2023-07-13T16:24:19;24.10;96.20